Borrego Springs, CA (92004)

2:32 AM PDT on September 02, 2014 (GMT -0700)
RoadRunner Club Borrego Springs, Ca | Change Station
CLOSE
Current Station
Personal Weather Station
Location: Borrego Springs, CA
Elevation: 568 ft
Nearby Weather Stations

Elev 568 ft 33.26 °N, 116.36 °W | Updated 10 minutes ago

Partly Cloudy
Partly Cloudy
76.4 °F
Feels Like 78 °F
N
0.0
Wind Variable Wind from NE
Gusts 0.0 mph

Today
High -- | Low -- °F
--% Chance of Precip.
Yesterday
High -- | Low -- °F
Precip. -- in
6:20 AM 7:09 PM
Waxing Crescent, 49% visible
Pressure 29.67 in
Visibility 10.0 miles
Clouds Clear
Heat Index 78 °F
Dew Point 52 °F
Humidity 42%
Rainfall 0.00 in
Snow Depth Not available.
UV 0 out of 12
Pollen 8.30 out of 12
Air Quality Not available.
Flu Activity Not available.
METAR KTRM 020852Z AUTO 35006KT 10SM CLR 30/01 A2966 RMK AO2 SLP047 T03000011 51002 TSNO

More Conditions Fewer Conditions

Pressure 29.67 in
Visibility 10.0 miles
Clouds Clear
Heat Index 78 °F
Dew Point 52 °F
Humidity 42%
Rainfall 0.00 in
Snow Depth Not available.
UV 0 out of 12
Pollen 8.30 out of 12
Air Quality Not available.
Flu Activity Not available.
METAR KTRM 020852Z AUTO 35006KT 10SM CLR 30/01 A2966 RMK AO2 SLP047 T03000011 51002 TSNO

More Conditions Fewer Conditions

10-Day Weather Forecast

Almanac

Astronomy

Sep. 02, 2014 Rise Set
Actual Time 6:20 AM PDT 7:09 PM PDT
Civil Twilight 5:55 AM PDT 7:34 PM PDT
Nautical Twilight 5:25 AM PDT 8:04 PM PDT
Astronomical Twilight 4:54 AM PDT 8:34 PM PDT
Moon 1:47 PM PDT No Moon Set
Length of Visible Light 13h 39m
Length of Day
12h 48m
Tomorrow will be 1m 58s shorter.
Waxing Crescent, 49% of the Moon is Illuminated
Today
Waxing Crescent
Sep 2
First Quarter
Sep 8
Full
Sep 15
Last Quarter
Sep 24
New

Today's Extremes

State Highs State Lows

Community

WunderPhotos

Upload Photos

1,749,587 photos uploaded!

WunderBlogs® & News

Nearby

Snow Depth

Station Depth Elevation
Leavitt Lake 0 in 9400 ft
Leavitt Meadows 1 in 7200 ft
Summit Meadow 1 in 9122 ft
Monitor Pass 0 in 8350 ft
Blue Lakes 0 in 8000 ft

Earthquake Activity

City Distance Mag. Time & Date
Holtville, California 63 miles 2.5 5:43 PM PDT
2014-09-01
Holtville, California 65 miles 2.5 5:26 PM PDT
2014-09-01
Minimum magnitude displayed is 2.5.

Coastal Water Temperatures

Place Temperature
No Stations Reporting

Nearby Weather Stations